AFL5719 UUEE-UWGG
Flight info
| Callsign | AFL5719 |
|---|---|
| Flight time | N/A |
| Altitude | 31000 |
| Route | KOGOM3H KOGOM L94 USTOK USTOK2Z |
| Aircraft | MD88/M-SDFGIRWY/C |
Departure
| Time | N/A |
|---|---|
| Airport | Sheremetyevo International Airport (UUEE) |
Arrival
| Time | 2026-04-22 10:29 |
|---|---|
| Airport | Nizhny Novgorod / Strigino International Airport (UWGG) |
| Time | Latitude | Longitude | Altitude | Speed | Heading |
|---|---|---|---|---|---|
| 2026-04-22 10:11 | 56.18802 | 42.24097 | 30398 ft | 450 kts | 94° |
| 2026-04-22 10:11 | 56.18470 | 42.29879 | 29783 ft | 453 kts | 94° |
| 2026-04-22 10:11 | 56.18150 | 42.35472 | 29110 ft | 449 kts | 94° |
| 2026-04-22 10:12 | 56.17585 | 42.45605 | 27758 ft | 446 kts | 94° |
| 2026-04-22 10:12 | 56.17280 | 42.51137 | 26965 ft | 446 kts | 94° |
| 2026-04-22 10:12 | 56.16976 | 42.56670 | 26189 ft | 445 kts | 94° |
| 2026-04-22 10:12 | 56.16667 | 42.62202 | 25390 ft | 445 kts | 94° |
| 2026-04-22 10:13 | 56.16358 | 42.67727 | 24604 ft | 444 kts | 94° |
| 2026-04-22 10:13 | 56.16056 | 42.73233 | 23827 ft | 442 kts | 94° |
| 2026-04-22 10:13 | 56.15757 | 42.78702 | 23052 ft | 441 kts | 94° |
| 2026-04-22 10:13 | 56.15452 | 42.84160 | 22273 ft | 439 kts | 94° |
| 2026-04-22 10:14 | 56.15134 | 42.89590 | 21497 ft | 437 kts | 95° |
| 2026-04-22 10:14 | 56.14786 | 42.94997 | 20720 ft | 435 kts | 95° |
| 2026-04-22 10:14 | 56.14437 | 43.00377 | 19942 ft | 433 kts | 95° |
| 2026-04-22 10:14 | 56.14106 | 43.05644 | 19193 ft | 430 kts | 95° |
| 2026-04-22 10:15 | 56.13790 | 43.10946 | 18443 ft | 427 kts | 94° |
| 2026-04-22 10:15 | 56.13482 | 43.16230 | 17691 ft | 424 kts | 94° |
| 2026-04-22 10:15 | 56.13313 | 43.21477 | 16934 ft | 419 kts | 83° |
| 2026-04-22 10:15 | 56.13862 | 43.26488 | 16233 ft | 401 kts | 71° |
| 2026-04-22 10:16 | 56.14722 | 43.31171 | 15497 ft | 388 kts | 69° |
| 2026-04-22 10:16 | 56.15601 | 43.35649 | 14765 ft | 375 kts | 69° |
| 2026-04-22 10:16 | 56.16461 | 43.39995 | 14071 ft | 364 kts | 68° |
| 2026-04-22 10:16 | 56.17294 | 43.44216 | 13395 ft | 354 kts | 69° |
| 2026-04-22 10:17 | 56.18097 | 43.48339 | 12737 ft | 345 kts | 69° |
| 2026-04-22 10:17 | 56.18864 | 43.52353 | 12121 ft | 335 kts | 69° |
| 2026-04-22 10:17 | 56.19599 | 43.56261 | 11534 ft | 328 kts | 70° |
| 2026-04-22 10:17 | 56.20326 | 43.60166 | 10977 ft | 331 kts | 70° |
| 2026-04-22 10:18 | 56.21050 | 43.64081 | 10503 ft | 329 kts | 70° |
| 2026-04-22 10:18 | 56.21751 | 43.67919 | 10264 ft | 319 kts | 70° |
| 2026-04-22 10:18 | 56.22434 | 43.71651 | 10086 ft | 308 kts | 70° |
| 2026-04-22 10:18 | 56.23090 | 43.75236 | 9900 ft | 297 kts | 70° |
| 2026-04-22 10:19 | 56.23713 | 43.78648 | 9719 ft | 284 kts | 70° |
| 2026-04-22 10:19 | 56.24328 | 43.82017 | 9191 ft | 289 kts | 70° |
| 2026-04-22 10:19 | 56.24981 | 43.85583 | 8200 ft | 310 kts | 70° |
| 2026-04-22 10:19 | 56.25666 | 43.89329 | 7410 ft | 320 kts | 71° |
| 2026-04-22 10:20 | 56.26356 | 43.93161 | 6727 ft | 324 kts | 71° |
| 2026-04-22 10:20 | 56.27045 | 43.97017 | 6162 ft | 319 kts | 71° |
| 2026-04-22 10:20 | 56.27707 | 44.00728 | 5780 ft | 305 kts | 71° |
| 2026-04-22 10:20 | 56.28337 | 44.04288 | 5376 ft | 293 kts | 71° |
| 2026-04-22 10:21 | 56.29255 | 44.07408 | 5029 ft | 271 kts | 45° |
| 2026-04-22 10:21 | 56.30753 | 44.09188 | 4660 ft | 254 kts | 15° |
| 2026-04-22 10:21 | 56.32439 | 44.09316 | 4253 ft | 237 kts | 342° |
| 2026-04-22 10:21 | 56.33812 | 44.07888 | 3850 ft | 223 kts | 309° |
| 2026-04-22 10:22 | 56.34460 | 44.05468 | 3496 ft | 212 kts | 279° |
| 2026-04-22 10:22 | 56.34725 | 44.02884 | 3056 ft | 210 kts | 284° |
| 2026-04-22 10:22 | 56.35212 | 44.00215 | 2751 ft | 241 kts | 292° |
| 2026-04-22 10:22 | 56.35936 | 43.97477 | 2501 ft | 234 kts | 297° |
| 2026-04-22 10:23 | 56.36708 | 43.95033 | 2382 ft | 215 kts | 300° |
| 2026-04-22 10:23 | 56.37480 | 43.92833 | 2349 ft | 202 kts | 301° |
| 2026-04-22 10:23 | 56.38230 | 43.90826 | 2306 ft | 185 kts | 302° |
| 2026-04-22 10:23 | 56.38924 | 43.89011 | 2264 ft | 170 kts | 303° |
| 2026-04-22 10:24 | 56.39592 | 43.87275 | 2273 ft | 167 kts | 299° |
| 2026-04-22 10:24 | 56.39821 | 43.85276 | 2241 ft | 168 kts | 253° |
| 2026-04-22 10:24 | 56.39051 | 43.83792 | 2266 ft | 173 kts | 193° |
| 2026-04-22 10:24 | 56.37923 | 43.83614 | 2780 ft | 149 kts | 187° |
| 2026-04-22 10:25 | 56.36998 | 43.83409 | 3411 ft | 131 kts | 192° |
| 2026-04-22 10:25 | 56.36002 | 43.83090 | 3473 ft | 156 kts | 191° |
| 2026-04-22 10:25 | 56.34900 | 43.82802 | 3640 ft | 160 kts | 191° |
| 2026-04-22 10:25 | 56.33792 | 43.82509 | 3471 ft | 168 kts | 193° |
| 2026-04-22 10:26 | 56.32639 | 43.82111 | 3042 ft | 167 kts | 193° |
| 2026-04-22 10:26 | 56.31509 | 43.81712 | 2570 ft | 164 kts | 193° |
| 2026-04-22 10:26 | 56.30389 | 43.81305 | 2212 ft | 165 kts | 193° |
| 2026-04-22 10:26 | 56.29332 | 43.80917 | 2057 ft | 151 kts | 195° |
| 2026-04-22 10:27 | 56.28335 | 43.80515 | 1791 ft | 149 kts | 193° |
| 2026-04-22 10:27 | 56.27260 | 43.80138 | 1239 ft | 153 kts | 193° |
| 2026-04-22 10:27 | 56.26235 | 43.79754 | 806 ft | 154 kts | 191° |
| 2026-04-22 10:27 | 56.25194 | 43.79393 | 476 ft | 146 kts | 192° |
| 2026-04-22 10:28 | 56.24214 | 43.79032 | 310 ft | 143 kts | 191° |
| 2026-04-22 10:28 | 56.23303 | 43.78693 | 267 ft | 115 kts | 192° |
| 2026-04-22 10:28 | 56.22677 | 43.78471 | 266 ft | 70 kts | 191° |
| 2026-04-22 10:28 | 56.22273 | 43.78316 | 268 ft | 56 kts | 192° |
| 2026-04-22 10:29 | 56.22051 | 43.78235 | 268 ft | 16 kts | 191° |
| 2026-04-22 10:29 | 56.21976 | 43.78221 | 267 ft | 5 kts | 163° |
| 2026-04-22 10:29 | 56.21957 | 43.78248 | 267 ft | 6 kts | 130° |
| 2026-04-22 10:29 | 56.21944 | 43.78310 | 267 ft | 6 kts | 104° |
| 2026-04-22 10:30 | 56.21931 | 43.78414 | 267 ft | 11 kts | 102° |
| 2026-04-22 10:30 | 56.21916 | 43.78539 | 267 ft | 10 kts | 100° |
| 2026-04-22 10:30 | 56.21912 | 43.78658 | 267 ft | 6 kts | 104° |
| 2026-04-22 10:30 | 56.21893 | 43.78699 | 267 ft | 8 kts | 133° |
| 2026-04-22 10:31 | 56.21865 | 43.78774 | 266 ft | 7 kts | 104° |
| 2026-04-22 10:31 | 56.21857 | 43.78843 | 266 ft | 0 kts | 101° |